sensor_id;sensor_type;location;lat;lon;timestamp;temperature;humidity
19928;DHT22;10126;50.876;4.470;2023-08-30T00:00:06;14.00;99.90
19928;DHT22;10126;50.876;4.470;2023-08-30T00:02:07;14.00;99.90
19928;DHT22;10126;50.876;4.470;2023-08-30T00:04:09;13.90;99.90
19928;DHT22;10126;50.876;4.470;2023-08-30T00:06:10;14.00;99.90
19928;DHT22;10126;50.876;4.470;2023-08-30T00:08:10;14.00;99.90
19928;DHT22;10126;50.876;4.470;2023-08-30T00:10:11;14.00;99.90
19928;DHT22;10126;50.876;4.470;2023-08-30T00:12:12;14.00;99.90
19928;DHT22;10126;50.876;4.470;2023-08-30T00:14:12;14.10;99.90
19928;DHT22;10126;50.876;4.470;2023-08-30T00:16:13;14.20;99.90
19928;DHT22;10126;50.876;4.470;2023-08-30T00:18:17;14.20;99.90
19928;DHT22;10126;50.876;4.470;2023-08-30T00:20:20;14.40;99.90
19928;DHT22;10126;50.876;4.470;2023-08-30T00:22:21;14.50;99.90
19928;DHT22;10126;50.876;4.470;2023-08-30T00:24:22;14.60;99.90
19928;DHT22;10126;50.876;4.470;2023-08-30T00:26:23;14.60;99.90
19928;DHT22;10126;50.876;4.470;2023-08-30T00:28:23;14.70;99.90
19928;DHT22;10126;50.876;4.470;2023-08-30T00:30:24;14.60;99.90
19928;DHT22;10126;50.876;4.470;2023-08-30T00:32:25;14.50;99.90
19928;DHT22;10126;50.876;4.470;2023-08-30T00:34:26;14.50;99.90
19928;DHT22;10126;50.876;4.470;2023-08-30T00:36:26;14.50;99.90
19928;DHT22;10126;50.876;4.470;2023-08-30T00:38:28;14.50;99.90
19928;DHT22;10126;50.876;4.470;2023-08-30T00:40:29;14.40;99.90
19928;DHT22;10126;50.876;4.470;2023-08-30T00:42:29;14.40;99.90
19928;DHT22;10126;50.876;4.470;2023-08-30T00:44:30;14.50;99.90
19928;DHT22;10126;50.876;4.470;2023-08-30T00:46:35;14.30;99.90
19928;DHT22;10126;50.876;4.470;2023-08-30T00:48:35;14.40;99.90
19928;DHT22;10126;50.876;4.470;2023-08-30T00:50:36;14.20;99.90
19928;DHT22;10126;50.876;4.470;2023-08-30T00:52:38;14.10;99.90
19928;DHT22;10126;50.876;4.470;2023-08-30T00:54:39;14.00;99.90
19928;DHT22;10126;50.876;4.470;2023-08-30T00:56:39;13.80;99.90
19928;DHT22;10126;50.876;4.470;2023-08-30T00:58:40;13.80;99.90
19928;DHT22;10126;50.876;4.470;2023-08-30T01:00:41;13.70;99.90
19928;DHT22;10126;50.876;4.470;2023-08-30T01:02:42;13.70;99.90
19928;DHT22;10126;50.876;4.470;2023-08-30T01:04:42;13.80;99.90
19928;DHT22;10126;50.876;4.470;2023-08-30T01:06:43;13.70;99.90
19928;DHT22;10126;50.876;4.470;2023-08-30T01:08:44;13.70;99.90
19928;DHT22;10126;50.876;4.470;2023-08-30T01:10:57;13.70;99.90
19928;DHT22;10126;50.876;4.470;2023-08-30T01:13:08;13.80;99.90
19928;DHT22;10126;50.876;4.470;2023-08-30T01:15:19;13.70;99.90
19928;DHT22;10126;50.876;4.470;2023-08-30T01:17:22;13.60;99.90
19928;DHT22;10126;50.876;4.470;2023-08-30T01:22:19;13.50;99.90
19928;DHT22;10126;50.876;4.470;2023-08-30T01:24:14;13.40;99.90
19928;DHT22;10126;50.876;4.470;2023-08-30T01:28:38;13.50;99.90
19928;DHT22;10126;50.876;4.470;2023-08-30T01:30:41;13.50;99.90
19928;DHT22;10126;50.876;4.470;2023-08-30T01:32:43;13.60;99.90
19928;DHT22;10126;50.876;4.470;2023-08-30T01:34:44;13.50;99.90
19928;DHT22;10126;50.876;4.470;2023-08-30T01:36:47;13.40;99.90
19928;DHT22;10126;50.876;4.470;2023-08-30T01:38:48;13.40;99.90
19928;DHT22;10126;50.876;4.470;2023-08-30T01:40:50;13.30;99.90
19928;DHT22;10126;50.876;4.470;2023-08-30T01:42:52;13.30;99.90
19928;DHT22;10126;50.876;4.470;2023-08-30T01:44:55;13.40;99.90
19928;DHT22;10126;50.876;4.470;2023-08-30T01:46:57;13.40;99.90
19928;DHT22;10126;50.876;4.470;2023-08-30T01:49:00;13.50;99.90
19928;DHT22;10126;50.876;4.470;2023-08-30T01:51:02;13.50;99.90
19928;DHT22;10126;50.876;4.470;2023-08-30T01:53:04;13.60;99.90
19928;DHT22;10126;50.876;4.470;2023-08-30T01:55:06;13.60;99.90
19928;DHT22;10126;50.876;4.470;2023-08-30T01:57:08;13.50;99.90
19928;DHT22;10126;50.876;4.470;2023-08-30T01:59:09;13.50;99.90
19928;DHT22;10126;50.876;4.470;2023-08-30T02:01:10;13.50;99.90
19928;DHT22;10126;50.876;4.470;2023-08-30T02:03:12;13.50;99.90
19928;DHT22;10126;50.876;4.470;2023-08-30T02:05:12;13.60;99.90
19928;DHT22;10126;50.876;4.470;2023-08-30T02:07:35;13.80;99.90
19928;DHT22;10126;50.876;4.470;2023-08-30T02:09:55;13.90;99.90
19928;DHT22;10126;50.876;4.470;2023-08-30T02:12:00;14.00;99.90
19928;DHT22;10126;50.876;4.470;2023-08-30T02:14:05;14.10;99.90
19928;DHT22;10126;50.876;4.470;2023-08-30T02:16:09;14.20;99.90
19928;DHT22;10126;50.876;4.470;2023-08-30T02:18:10;14.30;99.90
19928;DHT22;10126;50.876;4.470;2023-08-30T02:20:11;14.30;99.90
19928;DHT22;10126;50.876;4.470;2023-08-30T02:22:12;14.30;99.90
19928;DHT22;10126;50.876;4.470;2023-08-30T02:24:13;14.30;99.90
19928;DHT22;10126;50.876;4.470;2023-08-30T02:26:13;14.40;99.90
19928;DHT22;10126;50.876;4.470;2023-08-30T02:28:14;14.50;99.90
19928;DHT22;10126;50.876;4.470;2023-08-30T02:30:14;14.60;99.90
19928;DHT22;10126;50.876;4.470;2023-08-30T02:32:15;14.60;99.90
19928;DHT22;10126;50.876;4.470;2023-08-30T02:34:21;14.70;99.90
19928;DHT22;10126;50.876;4.470;2023-08-30T02:36:21;14.70;99.90
19928;DHT22;10126;50.876;4.470;2023-08-30T02:38:22;14.70;99.90
19928;DHT22;10126;50.876;4.470;2023-08-30T02:40:22;14.80;99.90
19928;DHT22;10126;50.876;4.470;2023-08-30T02:42:23;14.90;99.90
19928;DHT22;10126;50.876;4.470;2023-08-30T02:44:25;14.90;99.90
19928;DHT22;10126;50.876;4.470;2023-08-30T02:46:26;15.00;99.90
19928;DHT22;10126;50.876;4.470;2023-08-30T02:48:26;15.00;99.90
19928;DHT22;10126;50.876;4.470;2023-08-30T02:50:27;14.90;99.90
19928;DHT22;10126;50.876;4.470;2023-08-30T02:52:27;14.90;99.90
19928;DHT22;10126;50.876;4.470;2023-08-30T02:54:28;14.90;99.90
19928;DHT22;10126;50.876;4.470;2023-08-30T02:56:29;14.80;99.90
19928;DHT22;10126;50.876;4.470;2023-08-30T02:58:29;14.80;99.90
19928;DHT22;10126;50.876;4.470;2023-08-30T03:00:30;14.80;99.90
19928;DHT22;10126;50.876;4.470;2023-08-30T03:02:31;14.90;99.90
19928;DHT22;10126;50.876;4.470;2023-08-30T03:04:33;14.80;99.90
19928;DHT22;10126;50.876;4.470;2023-08-30T03:06:35;15.00;99.90
19928;DHT22;10126;50.876;4.470;2023-08-30T03:08:35;15.00;99.90
19928;DHT22;10126;50.876;4.470;2023-08-30T03:10:36;15.20;99.90
19928;DHT22;10126;50.876;4.470;2023-08-30T03:12:37;15.20;99.90
19928;DHT22;10126;50.876;4.470;2023-08-30T03:14:38;15.20;99.90
19928;DHT22;10126;50.876;4.470;2023-08-30T03:16:38;15.20;99.90
19928;DHT22;10126;50.876;4.470;2023-08-30T03:18:40;15.30;99.90
19928;DHT22;10126;50.876;4.470;2023-08-30T03:20:41;15.20;99.90
19928;DHT22;10126;50.876;4.470;2023-08-30T03:22:42;15.20;99.90
19928;DHT22;10126;50.876;4.470;2023-08-30T03:24:42;15.10;99.90
19928;DHT22;10126;50.876;4.470;2023-08-30T03:26:43;15.10;99.90
19928;DHT22;10126;50.876;4.470;2023-08-30T03:28:44;15.30;99.90
19928;DHT22;10126;50.876;4.470;2023-08-30T03:30:45;15.30;99.90
19928;DHT22;10126;50.876;4.470;2023-08-30T03:32:45;15.20;99.90
19928;DHT22;10126;50.876;4.470;2023-08-30T03:34:47;15.20;99.90
19928;DHT22;10126;50.876;4.470;2023-08-30T03:36:47;15.20;99.90
19928;DHT22;10126;50.876;4.470;2023-08-30T03:38:54;15.10;99.90
19928;DHT22;10126;50.876;4.470;2023-08-30T03:40:55;15.20;99.90
19928;DHT22;10126;50.876;4.470;2023-08-30T03:42:55;15.10;99.90
19928;DHT22;10126;50.876;4.470;2023-08-30T03:44:56;15.20;99.90
19928;DHT22;10126;50.876;4.470;2023-08-30T03:46:57;15.20;99.90
19928;DHT22;10126;50.876;4.470;2023-08-30T03:48:57;15.20;99.90
19928;DHT22;10126;50.876;4.470;2023-08-30T03:50:58;15.20;99.90
19928;DHT22;10126;50.876;4.470;2023-08-30T03:52:59;15.20;99.90
19928;DHT22;10126;50.876;4.470;2023-08-30T03:54:59;15.20;99.90
19928;DHT22;10126;50.876;4.470;2023-08-30T03:57:00;15.30;99.90
19928;DHT22;10126;50.876;4.470;2023-08-30T03:59:00;15.20;99.90
19928;DHT22;10126;50.876;4.470;2023-08-30T04:01:01;15.20;99.90
19928;DHT22;10126;50.876;4.470;2023-08-30T04:03:02;15.30;99.90
19928;DHT22;10126;50.876;4.470;2023-08-30T04:05:03;15.30;99.90
19928;DHT22;10126;50.876;4.470;2023-08-30T04:07:08;15.20;99.90
19928;DHT22;10126;50.876;4.470;2023-08-30T04:09:09;15.10;99.90
19928;DHT22;10126;50.876;4.470;2023-08-30T04:11:10;15.00;99.90
19928;DHT22;10126;50.876;4.470;2023-08-30T04:13:11;15.00;99.90
19928;DHT22;10126;50.876;4.470;2023-08-30T04:15:11;15.00;99.90
19928;DHT22;10126;50.876;4.470;2023-08-30T04:17:13;15.00;99.90
19928;DHT22;10126;50.876;4.470;2023-08-30T04:19:14;15.10;99.90
19928;DHT22;10126;50.876;4.470;2023-08-30T04:21:14;15.10;99.90
19928;DHT22;10126;50.876;4.470;2023-08-30T04:23:15;15.10;99.90
19928;DHT22;10126;50.876;4.470;2023-08-30T04:25:16;15.20;99.90
19928;DHT22;10126;50.876;4.470;2023-08-30T04:27:16;15.20;99.90
19928;DHT22;10126;50.876;4.470;2023-08-30T04:29:17;15.30;99.90
19928;DHT22;10126;50.876;4.470;2023-08-30T04:31:18;15.10;99.90
19928;DHT22;10126;50.876;4.470;2023-08-30T04:33:18;15.20;99.90
19928;DHT22;10126;50.876;4.470;2023-08-30T04:35:19;15.30;99.90
19928;DHT22;10126;50.876;4.470;2023-08-30T04:37:19;15.30;99.90
19928;DHT22;10126;50.876;4.470;2023-08-30T04:39:20;15.30;99.90
19928;DHT22;10126;50.876;4.470;2023-08-30T04:41:21;15.20;99.90
19928;DHT22;10126;50.876;4.470;2023-08-30T04:43:21;15.20;99.90
19928;DHT22;10126;50.876;4.470;2023-08-30T04:45:22;15.20;99.90
19928;DHT22;10126;50.876;4.470;2023-08-30T04:47:23;15.20;99.90
19928;DHT22;10126;50.876;4.470;2023-08-30T04:49:23;15.20;99.90
19928;DHT22;10126;50.876;4.470;2023-08-30T04:51:29;15.30;99.90
19928;DHT22;10126;50.876;4.470;2023-08-30T04:53:30;15.30;99.90
19928;DHT22;10126;50.876;4.470;2023-08-30T04:55:31;15.30;99.90
19928;DHT22;10126;50.876;4.470;2023-08-30T04:57:32;15.30;99.90
19928;DHT22;10126;50.876;4.470;2023-08-30T04:59:32;15.10;99.90
19928;DHT22;10126;50.876;4.470;2023-08-30T05:01:33;15.10;99.90
19928;DHT22;10126;50.876;4.470;2023-08-30T05:03:33;15.00;99.90
19928;DHT22;10126;50.876;4.470;2023-08-30T05:05:34;15.00;99.90
19928;DHT22;10126;50.876;4.470;2023-08-30T05:07:35;14.90;99.90
19928;DHT22;10126;50.876;4.470;2023-08-30T05:09:36;15.00;99.90
19928;DHT22;10126;50.876;4.470;2023-08-30T05:11:36;15.10;99.90
19928;DHT22;10126;50.876;4.470;2023-08-30T05:13:37;15.00;99.90
19928;DHT22;10126;50.876;4.470;2023-08-30T05:15:38;14.90;99.90
19928;DHT22;10126;50.876;4.470;2023-08-30T05:17:38;15.00;99.90
19928;DHT22;10126;50.876;4.470;2023-08-30T05:19:39;15.00;99.90
19928;DHT22;10126;50.876;4.470;2023-08-30T05:21:40;15.10;99.90
19928;DHT22;10126;50.876;4.470;2023-08-30T05:23:40;15.10;99.90
19928;DHT22;10126;50.876;4.470;2023-08-30T05:25:42;15.00;99.90
19928;DHT22;10126;50.876;4.470;2023-08-30T05:27:43;14.90;99.90
19928;DHT22;10126;50.876;4.470;2023-08-30T05:29:43;14.80;99.90
19928;DHT22;10126;50.876;4.470;2023-08-30T05:31:44;14.90;99.90
19928;DHT22;10126;50.876;4.470;2023-08-30T05:33:45;14.80;99.90
19928;DHT22;10126;50.876;4.470;2023-08-30T05:35:45;14.90;99.90
19928;DHT22;10126;50.876;4.470;2023-08-30T05:37:46;15.00;99.90
19928;DHT22;10126;50.876;4.470;2023-08-30T05:39:47;14.80;99.90
19928;DHT22;10126;50.876;4.470;2023-08-30T05:41:47;14.80;99.90
19928;DHT22;10126;50.876;4.470;2023-08-30T05:43:48;14.80;99.90
19928;DHT22;10126;50.876;4.470;2023-08-30T05:45:48;14.70;99.90
19928;DHT22;10126;50.876;4.470;2023-08-30T05:47:49;14.70;99.90
19928;DHT22;10126;50.876;4.470;2023-08-30T05:49:50;14.60;99.90
19928;DHT22;10126;50.876;4.470;2023-08-30T05:51:51;14.60;99.90
19928;DHT22;10126;50.876;4.470;2023-08-30T05:53:51;14.70;99.90
19928;DHT22;10126;50.876;4.470;2023-08-30T05:55:52;14.60;99.90
19928;DHT22;10126;50.876;4.470;2023-08-30T05:57:52;14.70;99.90
19928;DHT22;10126;50.876;4.470;2023-08-30T05:59:53;14.80;99.90
19928;DHT22;10126;50.876;4.470;2023-08-30T06:01:54;14.80;99.90
19928;DHT22;10126;50.876;4.470;2023-08-30T06:03:54;14.70;99.90
19928;DHT22;10126;50.876;4.470;2023-08-30T06:05:55;14.70;99.90
19928;DHT22;10126;50.876;4.470;2023-08-30T06:07:56;14.60;99.90
19928;DHT22;10126;50.876;4.470;2023-08-30T06:09:57;14.50;99.90
19928;DHT22;10126;50.876;4.470;2023-08-30T06:11:58;14.60;99.90
19928;DHT22;10126;50.876;4.470;2023-08-30T06:13:59;14.80;99.90
19928;DHT22;10126;50.876;4.470;2023-08-30T06:15:59;14.80;99.90
19928;DHT22;10126;50.876;4.470;2023-08-30T06:18:00;14.90;99.90
19928;DHT22;10126;50.876;4.470;2023-08-30T06:20:01;14.90;99.90
19928;DHT22;10126;50.876;4.470;2023-08-30T06:22:01;15.20;99.90
19928;DHT22;10126;50.876;4.470;2023-08-30T06:24:02;15.40;99.90
19928;DHT22;10126;50.876;4.470;2023-08-30T06:26:03;15.40;99.90
19928;DHT22;10126;50.876;4.470;2023-08-30T06:28:04;15.40;99.90
19928;DHT22;10126;50.876;4.470;2023-08-30T06:30:05;15.40;99.90
19928;DHT22;10126;50.876;4.470;2023-08-30T06:32:06;15.40;99.90
19928;DHT22;10126;50.876;4.470;2023-08-30T06:34:07;15.40;99.90
19928;DHT22;10126;50.876;4.470;2023-08-30T06:36:07;15.50;99.90
19928;DHT22;10126;50.876;4.470;2023-08-30T06:38:08;15.50;99.90
19928;DHT22;10126;50.876;4.470;2023-08-30T06:40:09;15.50;99.90
19928;DHT22;10126;50.876;4.470;2023-08-30T06:42:10;15.50;99.90
19928;DHT22;10126;50.876;4.470;2023-08-30T06:44:11;15.40;99.90
19928;DHT22;10126;50.876;4.470;2023-08-30T06:46:12;15.20;99.90
19928;DHT22;10126;50.876;4.470;2023-08-30T06:48:13;15.10;99.90
19928;DHT22;10126;50.876;4.470;2023-08-30T06:50:13;15.10;99.90
19928;DHT22;10126;50.876;4.470;2023-08-30T06:52:14;15.00;99.90
19928;DHT22;10126;50.876;4.470;2023-08-30T06:54:15;15.00;99.90
19928;DHT22;10126;50.876;4.470;2023-08-30T06:56:16;15.10;99.90
19928;DHT22;10126;50.876;4.470;2023-08-30T06:58:17;15.10;99.90
19928;DHT22;10126;50.876;4.470;2023-08-30T07:00:18;15.20;99.90
19928;DHT22;10126;50.876;4.470;2023-08-30T07:02:18;15.20;99.90
19928;DHT22;10126;50.876;4.470;2023-08-30T07:04:19;15.30;99.90
19928;DHT22;10126;50.876;4.470;2023-08-30T07:06:20;15.40;99.90
19928;DHT22;10126;50.876;4.470;2023-08-30T07:08:21;15.30;99.90
19928;DHT22;10126;50.876;4.470;2023-08-30T07:10:21;15.30;99.90
19928;DHT22;10126;50.876;4.470;2023-08-30T07:12:22;15.30;99.90
19928;DHT22;10126;50.876;4.470;2023-08-30T07:14:23;15.40;99.90
19928;DHT22;10126;50.876;4.470;2023-08-30T07:16:23;15.40;99.90
19928;DHT22;10126;50.876;4.470;2023-08-30T07:18:24;15.30;99.90
19928;DHT22;10126;50.876;4.470;2023-08-30T07:20:24;15.40;99.90
19928;DHT22;10126;50.876;4.470;2023-08-30T07:22:25;15.40;99.90
19928;DHT22;10126;50.876;4.470;2023-08-30T07:24:26;15.60;99.90
19928;DHT22;10126;50.876;4.470;2023-08-30T07:26:26;15.60;99.90
19928;DHT22;10126;50.876;4.470;2023-08-30T07:28:27;15.40;99.90
19928;DHT22;10126;50.876;4.470;2023-08-30T07:30:28;15.50;99.90
19928;DHT22;10126;50.876;4.470;2023-08-30T07:32:29;15.50;99.90
19928;DHT22;10126;50.876;4.470;2023-08-30T07:34:29;15.60;99.90
19928;DHT22;10126;50.876;4.470;2023-08-30T07:36:30;15.60;99.90
19928;DHT22;10126;50.876;4.470;2023-08-30T07:38:33;15.50;99.90
19928;DHT22;10126;50.876;4.470;2023-08-30T07:40:33;15.40;99.90
19928;DHT22;10126;50.876;4.470;2023-08-30T07:42:34;15.30;99.90
19928;DHT22;10126;50.876;4.470;2023-08-30T07:44:35;15.50;99.90
19928;DHT22;10126;50.876;4.470;2023-08-30T07:46:35;15.60;99.90
19928;DHT22;10126;50.876;4.470;2023-08-30T07:48:36;15.50;99.90
19928;DHT22;10126;50.876;4.470;2023-08-30T07:50:37;15.50;99.90
19928;DHT22;10126;50.876;4.470;2023-08-30T07:52:37;15.50;99.90
19928;DHT22;10126;50.876;4.470;2023-08-30T07:54:40;15.50;99.90
19928;DHT22;10126;50.876;4.470;2023-08-30T07:56:41;15.60;99.90
19928;DHT22;10126;50.876;4.470;2023-08-30T07:58:41;15.80;99.90
19928;DHT22;10126;50.876;4.470;2023-08-30T08:00:45;15.90;99.90
19928;DHT22;10126;50.876;4.470;2023-08-30T08:02:45;16.00;99.90
19928;DHT22;10126;50.876;4.470;2023-08-30T08:04:46;16.00;99.90
19928;DHT22;10126;50.876;4.470;2023-08-30T08:06:47;15.90;99.90
19928;DHT22;10126;50.876;4.470;2023-08-30T08:08:48;16.10;99.90
19928;DHT22;10126;50.876;4.470;2023-08-30T08:10:48;16.20;99.90
19928;DHT22;10126;50.876;4.470;2023-08-30T08:12:49;16.10;99.90
19928;DHT22;10126;50.876;4.470;2023-08-30T08:14:49;16.00;99.90
19928;DHT22;10126;50.876;4.470;2023-08-30T08:16:50;16.10;99.90
19928;DHT22;10126;50.876;4.470;2023-08-30T08:18:51;16.20;99.90
19928;DHT22;10126;50.876;4.470;2023-08-30T08:20:52;16.40;99.90
19928;DHT22;10126;50.876;4.470;2023-08-30T08:22:53;16.40;99.90
19928;DHT22;10126;50.876;4.470;2023-08-30T08:24:54;16.40;99.90
19928;DHT22;10126;50.876;4.470;2023-08-30T08:26:56;16.40;99.90
19928;DHT22;10126;50.876;4.470;2023-08-30T08:28:57;16.50;99.90
19928;DHT22;10126;50.876;4.470;2023-08-30T08:30:58;16.60;99.90
19928;DHT22;10126;50.876;4.470;2023-08-30T08:32:59;16.70;99.90
19928;DHT22;10126;50.876;4.470;2023-08-30T08:35:00;16.90;99.90
19928;DHT22;10126;50.876;4.470;2023-08-30T08:37:00;17.00;99.90
19928;DHT22;10126;50.876;4.470;2023-08-30T08:39:01;17.20;99.90
19928;DHT22;10126;50.876;4.470;2023-08-30T08:41:12;17.20;99.90
19928;DHT22;10126;50.876;4.470;2023-08-30T08:43:13;17.20;99.90
19928;DHT22;10126;50.876;4.470;2023-08-30T08:45:14;17.10;99.90
19928;DHT22;10126;50.876;4.470;2023-08-30T08:47:19;17.30;99.90
19928;DHT22;10126;50.876;4.470;2023-08-30T08:49:20;17.40;99.90
19928;DHT22;10126;50.876;4.470;2023-08-30T08:51:21;17.40;99.90
19928;DHT22;10126;50.876;4.470;2023-08-30T08:53:24;17.50;99.90
19928;DHT22;10126;50.876;4.470;2023-08-30T08:55:26;17.70;99.90
19928;DHT22;10126;50.876;4.470;2023-08-30T08:57:28;17.90;99.90
19928;DHT22;10126;50.876;4.470;2023-08-30T08:59:31;17.90;99.90
19928;DHT22;10126;50.876;4.470;2023-08-30T09:01:34;18.00;99.90
19928;DHT22;10126;50.876;4.470;2023-08-30T09:03:36;18.10;99.90
19928;DHT22;10126;50.876;4.470;2023-08-30T09:05:40;18.30;99.90
19928;DHT22;10126;50.876;4.470;2023-08-30T09:07:42;18.60;99.90
19928;DHT22;10126;50.876;4.470;2023-08-30T09:09:43;18.80;99.90
19928;DHT22;10126;50.876;4.470;2023-08-30T09:11:44;19.10;99.90
19928;DHT22;10126;50.876;4.470;2023-08-30T09:13:44;19.00;99.90
19928;DHT22;10126;50.876;4.470;2023-08-30T09:15:45;19.30;99.90
19928;DHT22;10126;50.876;4.470;2023-08-30T09:17:45;19.60;99.90
19928;DHT22;10126;50.876;4.470;2023-08-30T09:19:47;19.80;99.90
19928;DHT22;10126;50.876;4.470;2023-08-30T09:21:55;20.20;99.90
19928;DHT22;10126;50.876;4.470;2023-08-30T09:24:04;20.00;99.90
19928;DHT22;10126;50.876;4.470;2023-08-30T09:26:05;20.10;99.90
19928;DHT22;10126;50.876;4.470;2023-08-30T09:28:05;20.40;99.90
19928;DHT22;10126;50.876;4.470;2023-08-30T09:30:06;20.60;99.90
19928;DHT22;10126;50.876;4.470;2023-08-30T09:32:08;20.70;99.90
19928;DHT22;10126;50.876;4.470;2023-08-30T09:34:09;20.70;99.90
19928;DHT22;10126;50.876;4.470;2023-08-30T09:36:11;20.50;99.90
19928;DHT22;10126;50.876;4.470;2023-08-30T09:38:20;20.60;99.90
19928;DHT22;10126;50.876;4.470;2023-08-30T09:40:21;20.30;99.90
19928;DHT22;10126;50.876;4.470;2023-08-30T09:42:22;20.20;99.90
19928;DHT22;10126;50.876;4.470;2023-08-30T09:44:23;20.10;99.90
19928;DHT22;10126;50.876;4.470;2023-08-30T09:46:25;19.90;99.90
19928;DHT22;10126;50.876;4.470;2023-08-30T09:48:28;19.80;99.90
19928;DHT22;10126;50.876;4.470;2023-08-30T09:50:35;19.70;99.90
19928;DHT22;10126;50.876;4.470;2023-08-30T09:52:36;19.70;99.90
19928;DHT22;10126;50.876;4.470;2023-08-30T09:54:39;19.50;99.90
19928;DHT22;10126;50.876;4.470;2023-08-30T09:56:42;19.50;99.90
19928;DHT22;10126;50.876;4.470;2023-08-30T09:58:46;19.70;99.90
19928;DHT22;10126;50.876;4.470;2023-08-30T10:00:48;19.60;99.90
19928;DHT22;10126;50.876;4.470;2023-08-30T10:02:49;19.50;99.90
19928;DHT22;10126;50.876;4.470;2023-08-30T10:04:50;19.30;99.90
19928;DHT22;10126;50.876;4.470;2023-08-30T10:06:51;19.20;99.90
19928;DHT22;10126;50.876;4.470;2023-08-30T10:08:53;19.10;99.90
19928;DHT22;10126;50.876;4.470;2023-08-30T10:10:55;19.00;99.90
19928;DHT22;10126;50.876;4.470;2023-08-30T10:12:59;18.80;99.90
19928;DHT22;10126;50.876;4.470;2023-08-30T10:15:01;18.60;99.90
19928;DHT22;10126;50.876;4.470;2023-08-30T10:17:03;18.50;99.90
19928;DHT22;10126;50.876;4.470;2023-08-30T10:19:09;18.60;99.90
19928;DHT22;10126;50.876;4.470;2023-08-30T10:21:12;18.30;99.90
19928;DHT22;10126;50.876;4.470;2023-08-30T10:23:14;18.30;99.90
19928;DHT22;10126;50.876;4.470;2023-08-30T10:25:20;18.30;99.90
19928;DHT22;10126;50.876;4.470;2023-08-30T10:27:22;18.30;99.90
19928;DHT22;10126;50.876;4.470;2023-08-30T10:29:24;18.30;99.90
19928;DHT22;10126;50.876;4.470;2023-08-30T10:31:27;18.20;99.90
19928;DHT22;10126;50.876;4.470;2023-08-30T10:33:28;18.40;99.90
19928;DHT22;10126;50.876;4.470;2023-08-30T10:35:29;18.50;99.90
19928;DHT22;10126;50.876;4.470;2023-08-30T10:37:30;18.80;99.90
19928;DHT22;10126;50.876;4.470;2023-08-30T10:39:35;19.00;99.90
19928;DHT22;10126;50.876;4.470;2023-08-30T10:41:36;19.40;99.90
19928;DHT22;10126;50.876;4.470;2023-08-30T10:43:36;19.80;99.90
19928;DHT22;10126;50.876;4.470;2023-08-30T10:45:40;20.10;99.90
19928;DHT22;10126;50.876;4.470;2023-08-30T10:47:41;20.30;99.90
19928;DHT22;10126;50.876;4.470;2023-08-30T10:49:42;20.60;99.90
19928;DHT22;10126;50.876;4.470;2023-08-30T10:51:53;20.90;99.90
19928;DHT22;10126;50.876;4.470;2023-08-30T10:53:57;21.40;99.90
19928;DHT22;10126;50.876;4.470;2023-08-30T10:56:11;22.00;99.90
19928;DHT22;10126;50.876;4.470;2023-08-30T10:58:14;22.00;99.90
19928;DHT22;10126;50.876;4.470;2023-08-30T11:02:16;21.90;99.90
19928;DHT22;10126;50.876;4.470;2023-08-30T11:04:18;21.90;99.90
19928;DHT22;10126;50.876;4.470;2023-08-30T11:06:19;21.70;99.90
19928;DHT22;10126;50.876;4.470;2023-08-30T11:08:21;21.90;99.90
19928;DHT22;10126;50.876;4.470;2023-08-30T11:10:23;21.80;99.90
19928;DHT22;10126;50.876;4.470;2023-08-30T11:12:24;21.50;99.90
19928;DHT22;10126;50.876;4.470;2023-08-30T11:14:30;21.30;99.90
19928;DHT22;10126;50.876;4.470;2023-08-30T11:16:31;21.00;99.90
19928;DHT22;10126;50.876;4.470;2023-08-30T11:18:37;20.90;99.90
19928;DHT22;10126;50.876;4.470;2023-08-30T11:20:39;20.80;99.90
19928;DHT22;10126;50.876;4.470;2023-08-30T11:22:44;21.20;99.90
19928;DHT22;10126;50.876;4.470;2023-08-30T11:24:47;21.40;99.90
19928;DHT22;10126;50.876;4.470;2023-08-30T11:26:53;21.40;99.90
19928;DHT22;10126;50.876;4.470;2023-08-30T11:28:54;21.60;99.90
19928;DHT22;10126;50.876;4.470;2023-08-30T11:30:55;21.30;99.90
19928;DHT22;10126;50.876;4.470;2023-08-30T11:32:57;21.40;99.90
19928;DHT22;10126;50.876;4.470;2023-08-30T11:34:58;21.70;99.90
19928;DHT22;10126;50.876;4.470;2023-08-30T11:36:59;21.70;99.90
19928;DHT22;10126;50.876;4.470;2023-08-30T11:39:00;21.40;99.90
19928;DHT22;10126;50.876;4.470;2023-08-30T11:41:01;21.20;99.90
19928;DHT22;10126;50.876;4.470;2023-08-30T11:43:03;21.20;99.90
19928;DHT22;10126;50.876;4.470;2023-08-30T11:45:03;21.40;99.90
19928;DHT22;10126;50.876;4.470;2023-08-30T11:47:04;21.30;99.90
19928;DHT22;10126;50.876;4.470;2023-08-30T11:49:05;21.00;99.90
19928;DHT22;10126;50.876;4.470;2023-08-30T11:51:07;20.60;99.90
19928;DHT22;10126;50.876;4.470;2023-08-30T11:53:08;20.40;99.90
19928;DHT22;10126;50.876;4.470;2023-08-30T11:55:08;20.10;99.90
19928;DHT22;10126;50.876;4.470;2023-08-30T11:57:09;20.00;99.90
19928;DHT22;10126;50.876;4.470;2023-08-30T11:59:21;19.90;99.90
19928;DHT22;10126;50.876;4.470;2023-08-30T12:01:25;20.00;99.90
19928;DHT22;10126;50.876;4.470;2023-08-30T12:03:29;20.10;99.90
19928;DHT22;10126;50.876;4.470;2023-08-30T12:05:29;20.30;99.90
19928;DHT22;10126;50.876;4.470;2023-08-30T12:07:37;20.60;99.90
19928;DHT22;10126;50.876;4.470;2023-08-30T12:09:37;20.80;99.90
19928;DHT22;10126;50.876;4.470;2023-08-30T12:11:38;20.70;99.90
19928;DHT22;10126;50.876;4.470;2023-08-30T12:13:39;20.60;99.90
19928;DHT22;10126;50.876;4.470;2023-08-30T12:15:40;20.10;99.90
19928;DHT22;10126;50.876;4.470;2023-08-30T12:17:40;20.10;99.90
19928;DHT22;10126;50.876;4.470;2023-08-30T12:19:41;20.00;99.90
19928;DHT22;10126;50.876;4.470;2023-08-30T12:21:47;20.10;99.90
19928;DHT22;10126;50.876;4.470;2023-08-30T12:23:47;19.90;99.90
19928;DHT22;10126;50.876;4.470;2023-08-30T12:28:02;20.00;99.90
19928;DHT22;10126;50.876;4.470;2023-08-30T12:30:04;19.90;99.90
19928;DHT22;10126;50.876;4.470;2023-08-30T12:32:07;20.00;99.90
19928;DHT22;10126;50.876;4.470;2023-08-30T12:34:08;20.00;99.90
19928;DHT22;10126;50.876;4.470;2023-08-30T12:36:09;19.80;99.90
19928;DHT22;10126;50.876;4.470;2023-08-30T12:38:10;20.10;99.90
19928;DHT22;10126;50.876;4.470;2023-08-30T12:40:12;20.10;99.90
19928;DHT22;10126;50.876;4.470;2023-08-30T12:42:12;20.10;99.90
19928;DHT22;10126;50.876;4.470;2023-08-30T12:44:13;20.20;99.90
19928;DHT22;10126;50.876;4.470;2023-08-30T12:46:14;20.50;99.90
19928;DHT22;10126;50.876;4.470;2023-08-30T12:48:15;20.40;99.90
19928;DHT22;10126;50.876;4.470;2023-08-30T12:50:16;20.30;99.90
19928;DHT22;10126;50.876;4.470;2023-08-30T12:52:17;20.10;99.90
19928;DHT22;10126;50.876;4.470;2023-08-30T12:54:18;20.00;99.90
19928;DHT22;10126;50.876;4.470;2023-08-30T12:56:18;20.00;99.90